LKKU METAR and TAF | Updated Today

LKKU METAR

Kunovice Airport

Observation time: 4:20 hr. ago

LKKU 291600Z 33003KT CAVOK 13/05 Q1004

Need help? Read our tutorial on how to read METARs or read the parsed version below.

Kunovice Airport (LKKU) METAR

  • Weather conditions on Thu, 29 Sep 2022 16:00:00 +0000 (4:20 hr. ago):
  • Present conditions: Dry
  • Clouds: Clear skies
  • Visibility: Greater than 10 km
  • Wind: 330 degrees at 3 knots
  • Temperature: 13 celsius
  • Dew point: 5 celsius
  • Pressure: 1004 millibars
  • Remarks: None


Useful to know...